Time;durP1;ratioP1;P1;durP2;ratioP2;P2;SDS_P1;SDS_P2;PMS_P1;PMS_P2;Temp;Humidity;BMP_temperature;BMP_pressure;BME280_temperature;BME280_humidity;BME280_pressure;Samples;Min_cycle;Max_cycle;Signal;HPM_P1;HPM_P2
2022/05/17 00:01:47;;;;;;;20.08;10.25;;;;;;;;;;5055577;28;20037;-65
2022/05/17 00:04:15;;;;;;;18.30;9.80;;;;;;;;;;5056268;28;20052;-66
2022/05/17 00:06:44;;;;;;;14.35;9.10;;;;;;;;;;5055580;28;20056;-65
2022/05/17 00:09:12;;;;;;;14.23;9.13;;;;;;;;;;5055844;28;20057;-64
2022/05/17 00:11:43;;;;;;;16.15;9.63;;;;;;;;;;5055817;28;20136;-64
2022/05/17 00:14:12;;;;;;;10.75;8.90;;;;;;;;;;5055456;28;20053;-64
2022/05/17 00:16:43;;;;;;;12.52;9.90;;;;;;;;;;5056147;28;20061;-65
2022/05/17 00:19:16;;;;;;;19.10;10.07;;;;;;;;;;5055724;28;20096;-64
2022/05/17 00:21:46;;;;;;;15.98;9.13;;;;;;;;;;5038900;28;20071;-64
2022/05/17 00:24:15;;;;;;;11.75;9.25;;;;;;;;;;5055012;28;20053;-64
2022/05/17 00:26:43;;;;;;;17.30;10.10;;;;;;;;;;5037979;28;20063;-64
2022/05/17 00:29:12;;;;;;;14.20;11.05;;;;;;;;;;5055491;28;20045;-66
2022/05/17 00:31:40;;;;;;;18.08;9.13;;;;;;;;;;5055539;28;20063;-65
2022/05/17 00:34:09;;;;;;;18.48;11.20;;;;;;;;;;5055494;28;20052;-65
2022/05/17 00:36:38;;;;;;;13.18;8.65;;;;;;;;;;5055473;28;20059;-65
2022/05/17 00:39:07;;;;;;;13.63;8.73;;;;;;;;;;5055424;28;20045;-66
2022/05/17 00:41:37;;;;;;;12.63;8.07;;;;;;;;;;5055035;28;20049;-65
2022/05/17 00:46:55;;;;;;;10.70;8.23;;;;;;;;;;5055143;28;20049;-65
2022/05/17 00:49:34;;;;;;;12.25;7.82;;;;;;;;;;5055827;28;20095;-65
2022/05/17 00:52:07;;;;;;;9.93;8.85;;;;;;;;;;5037150;28;20049;-66
2022/05/17 00:54:35;;;;;;;15.88;8.93;;;;;;;;;;5055151;28;20158;-66
2022/05/17 00:57:32;;;;;;;18.42;9.60;;;;;;;;;;5055231;28;20067;-65
2022/05/17 01:00:03;;;;;;;10.55;7.65;;;;;;;;;;5037563;28;20119;-66
2022/05/17 01:02:31;;;;;;;12.27;7.97;;;;;;;;;;5053822;28;20450;-66
2022/05/17 01:05:02;;;;;;;10.02;8.52;;;;;;;;;;5054802;28;20048;-66
2022/05/17 01:07:39;;;;;;;13.55;9.27;;;;;;;;;;5033838;28;20057;-66
2022/05/17 01:10:10;;;;;;;11.60;8.73;;;;;;;;;;5033246;28;20065;-66
2022/05/17 01:12:38;;;;;;;18.80;8.82;;;;;;;;;;5034768;28;20054;-66
2022/05/17 01:15:11;;;;;;;10.40;7.95;;;;;;;;;;5034434;28;20049;-66
2022/05/17 01:17:40;;;;;;;11.40;9.23;;;;;;;;;;5034874;28;20049;-65
2022/05/17 01:20:12;;;;;;;10.77;7.85;;;;;;;;;;5034578;28;20041;-66
2022/05/17 01:22:40;;;;;;;7.88;7.07;;;;;;;;;;5034657;28;20049;-66
2022/05/17 01:25:09;;;;;;;8.27;7.15;;;;;;;;;;5034931;28;20457;-66
2022/05/17 01:27:43;;;;;;;8.75;7.20;;;;;;;;;;5034169;28;20079;-65
2022/05/17 01:30:20;;;;;;;9.27;6.45;;;;;;;;;;5034746;28;20614;-65
2022/05/17 01:32:54;;;;;;;7.38;5.95;;;;;;;;;;5034089;28;20576;-65
2022/05/17 01:35:22;;;;;;;;;;;;;;;;;;5035326;28;20084;-65
2022/05/17 01:37:54;;;;;;;15.07;7.10;;;;;;;;;;5034406;28;19925;-65
2022/05/17 01:40:23;;;;;;;10.27;5.57;;;;;;;;;;5034009;28;20107;-65
2022/05/17 01:42:51;;;;;;;10.13;5.53;;;;;;;;;;5033928;28;20673;-65
2022/05/17 01:45:19;;;;;;;6.93;5.53;;;;;;;;;;5034847;28;20111;-65
2022/05/17 01:47:48;;;;;;;13.43;8.63;;;;;;;;;;5033944;28;20513;-65
2022/05/17 01:50:16;;;;;;;11.00;7.65;;;;;;;;;;5034159;28;20397;-65
2022/05/17 01:52:45;;;;;;;7.78;6.97;;;;;;;;;;5034203;28;20186;-66
2022/05/17 01:55:13;;;;;;;10.38;5.63;;;;;;;;;;5033858;28;20161;-66
2022/05/17 01:57:41;;;;;;;6.38;5.70;;;;;;;;;;5034105;28;20136;-66
2022/05/17 02:00:16;;;;;;;6.60;5.78;;;;;;;;;;5033549;28;20071;-65
2022/05/17 02:02:46;;;;;;;10.57;5.20;;;;;;;;;;5033855;28;20092;-65
2022/05/17 02:05:18;;;;;;;11.00;6.18;;;;;;;;;;5033603;28;20052;-65
2022/05/17 02:07:50;;;;;;;12.30;5.93;;;;;;;;;;5041601;28;20555;-65
2022/05/17 02:10:24;;;;;;;10.68;5.88;;;;;;;;;;5054010;28;20091;-65
2022/05/17 02:12:54;;;;;;;8.02;5.05;;;;;;;;;;5052955;28;20514;-65
2022/05/17 02:15:23;;;;;;;12.30;4.75;;;;;;;;;;5053724;28;20139;-65
2022/05/17 02:17:53;;;;;;;9.38;4.65;;;;;;;;;;5053719;28;20150;-65
2022/05/17 02:20:20;;;;;;;10.38;5.30;;;;;;;;;;5053815;28;20488;-65
2022/05/17 02:22:49;;;;;;;7.03;4.88;;;;;;;;;;5053189;28;20395;-65
2022/05/17 02:25:17;;;;;;;10.32;5.50;;;;;;;;;;5053522;28;20403;-65
2022/05/17 02:27:46;;;;;;;9.45;5.30;;;;;;;;;;5053349;28;20072;-66
2022/05/17 02:30:14;;;;;;;15.43;5.32;;;;;;;;;;5035785;28;20037;-65
2022/05/17 02:32:44;;;;;;;9.05;5.28;;;;;;;;;;5053531;28;20442;-65
2022/05/17 02:35:13;;;;;;;7.28;5.55;;;;;;;;;;5052876;28;20049;-65
2022/05/17 02:37:43;;;;;;;11.75;7.13;;;;;;;;;;5053558;28;20053;-65
2022/05/17 02:40:13;;;;;;;7.85;5.90;;;;;;;;;;5052684;28;20057;-65
2022/05/17 02:42:42;;;;;;;8.60;7.07;;;;;;;;;;5053479;28;20081;-65
2022/05/17 02:45:11;;;;;;;6.55;5.70;;;;;;;;;;5052644;28;20092;-66
2022/05/17 02:47:39;;;;;;;8.55;6.18;;;;;;;;;;5053454;28;20041;-66
2022/05/17 02:50:10;;;;;;;12.55;6.53;;;;;;;;;;5052378;28;20057;-66
2022/05/17 02:52:39;;;;;;;11.43;7.45;;;;;;;;;;5052987;28;20057;-66
2022/05/17 02:55:08;;;;;;;10.32;6.35;;;;;;;;;;5053561;28;20048;-65
2022/05/17 02:57:38;;;;;;;10.90;6.53;;;;;;;;;;5052684;28;20049;-65
2022/05/17 03:00:12;;;;;;;14.90;7.75;;;;;;;;;;5052960;28;20053;-65
2022/05/17 03:02:40;;;;;;;8.65;6.30;;;;;;;;;;5052901;28;20488;-65
2022/05/17 03:05:10;;;;;;;9.35;6.18;;;;;;;;;;5053023;28;20450;-65
2022/05/17 03:07:38;;;;;;;12.60;6.35;;;;;;;;;;5052482;28;20156;-65
2022/05/17 03:10:10;;;;;;;11.93;6.50;;;;;;;;;;5053047;28;20041;-65
2022/05/17 03:12:40;;;;;;;12.02;6.38;;;;;;;;;;5052033;28;20118;-65
2022/05/17 03:15:10;;;;;;;11.57;6.57;;;;;;;;;;5052766;28;20365;-65
2022/05/17 03:17:39;;;;;;;8.93;6.32;;;;;;;;;;5052280;28;20122;-65
2022/05/17 03:20:08;;;;;;;8.35;6.55;;;;;;;;;;5052329;28;20076;-65
2022/05/17 03:22:37;;;;;;;15.23;6.32;;;;;;;;;;5053436;28;20078;-65
2022/05/17 03:25:07;;;;;;;9.25;5.93;;;;;;;;;;5056572;28;20081;-65
2022/05/17 03:27:53;;;;;;;8.45;5.70;;;;;;;;;;5056648;28;20045;-65
2022/05/17 03:30:22;;;;;;;6.53;5.65;;;;;;;;;;5055963;28;20033;-65
2022/05/17 03:32:51;;;;;;;11.55;5.65;;;;;;;;;;5056823;28;20060;-64
2022/05/17 03:35:20;;;;;;;10.57;6.18;;;;;;;;;;5056195;28;20037;-65
2022/05/17 03:37:49;;;;;;;9.27;5.72;;;;;;;;;;5056782;28;20063;-65
2022/05/17 03:40:19;;;;;;;10.38;4.70;;;;;;;;;;5055618;28;20049;-64
2022/05/17 03:42:47;;;;;;;15.45;5.63;;;;;;;;;;5056122;28;20565;-65
2022/05/17 03:45:15;;;;;;;7.88;5.22;;;;;;;;;;5055889;28;20052;-65
2022/05/17 03:47:45;;;;;;;12.52;6.10;;;;;;;;;;5055711;28;20041;-65
2022/05/17 03:50:15;;;;;;;7.32;5.50;;;;;;;;;;5055858;28;20484;-65
2022/05/17 03:52:44;;;;;;;6.93;4.63;;;;;;;;;;5054998;28;20056;-65
2022/05/17 03:55:12;;;;;;;11.25;5.97;;;;;;;;;;5055239;28;20048;-65
2022/05/17 03:57:40;;;;;;;10.35;5.60;;;;;;;;;;5054874;28;20076;-65
2022/05/17 04:00:13;;;;;;;9.63;4.60;;;;;;;;;;5055274;28;20041;-65
2022/05/17 04:02:43;;;;;;;7.03;5.15;;;;;;;;;;5055887;28;20479;-65
2022/05/17 04:05:13;;;;;;;13.98;4.82;;;;;;;;;;5054776;28;20137;-65
2022/05/17 04:07:43;;;;;;;8.45;5.05;;;;;;;;;;5055243;28;20124;-65
2022/05/17 04:10:14;;;;;;;10.30;4.75;;;;;;;;;;5055022;28;20049;-65
2022/05/17 04:12:43;;;;;;;6.80;5.10;;;;;;;;;;5055741;28;20069;-65
2022/05/17 04:15:36;;;;;;;10.82;5.40;;;;;;;;;;5054786;28;20069;-65
2022/05/17 04:18:04;;;;;;;7.93;5.05;;;;;;;;;;5055997;28;20493;-65
2022/05/17 04:20:33;;;;;;;11.38;4.88;;;;;;;;;;5054887;28;20068;-65
2022/05/17 04:23:01;;;;;;;6.38;4.10;;;;;;;;;;5055166;28;20069;-65
2022/05/17 04:25:34;;;;;;;8.52;4.40;;;;;;;;;;5055045;28;20049;-66
2022/05/17 04:28:02;;;;;;;11.43;5.78;;;;;;;;;;5056189;28;20049;-66
2022/05/17 04:30:33;;;;;;;7.22;4.65;;;;;;;;;;5055933;28;20132;-66
2022/05/17 04:33:02;;;;;;;10.73;4.82;;;;;;;;;;5055700;28;20404;-66
2022/05/17 04:35:29;;;;;;;8.23;4.72;;;;;;;;;;5055152;28;20129;-66
2022/05/17 04:37:58;;;;;;;7.93;4.60;;;;;;;;;;5054642;28;20140;-65
2022/05/17 04:40:26;;;;;;;9.75;5.25;;;;;;;;;;5055619;28;20052;-66
2022/05/17 04:42:57;;;;;;;9.35;4.95;;;;;;;;;;5037748;28;20057;-65
2022/05/17 04:45:27;;;;;;;9.18;4.88;;;;;;;;;;5055528;28;20083;-65
2022/05/17 04:47:56;;;;;;;11.35;5.35;;;;;;;;;;5054976;28;20492;-66
2022/05/17 04:50:24;;;;;;;6.43;5.00;;;;;;;;;;5055283;28;20053;-65
2022/05/17 04:52:53;;;;;;;9.55;5.20;;;;;;;;;;5055275;28;20482;-64
2022/05/17 04:55:23;;;;;;;6.93;4.70;;;;;;;;;;5054990;28;20087;-65
2022/05/17 04:57:53;;;;;;;10.05;4.80;;;;;;;;;;5054670;28;20049;-63
2022/05/17 05:00:24;;;;;;;13.48;5.78;;;;;;;;;;5054692;28;20098;-64
2022/05/17 05:02:53;;;;;;;11.45;6.97;;;;;;;;;;5055168;28;20044;-65
2022/05/17 05:05:24;;;;;;;9.77;4.85;;;;;;;;;;5054253;28;20125;-64
2022/05/17 05:07:52;;;;;;;9.68;5.55;;;;;;;;;;5054463;28;20215;-65
2022/05/17 05:10:21;;;;;;;14.85;5.45;;;;;;;;;;5054628;28;20112;-66
2022/05/17 05:12:49;;;;;;;14.68;5.90;;;;;;;;;;5054853;28;20492;-66
2022/05/17 05:15:18;;;;;;;12.15;4.80;;;;;;;;;;5036854;28;20071;-66
2022/05/17 05:17:48;;;;;;;12.05;5.50;;;;;;;;;;5054477;28;20079;-66
2022/05/17 05:20:18;;;;;;;10.07;6.35;;;;;;;;;;5054999;28;20400;-66
2022/05/17 05:22:47;;;;;;;8.70;6.28;;;;;;;;;;5054459;28;20102;-66
2022/05/17 05:25:16;;;;;;;12.27;7.43;;;;;;;;;;5054562;28;20053;-66
2022/05/17 05:27:46;;;;;;;16.23;6.75;;;;;;;;;;5052517;28;20079;-66
2022/05/17 05:30:16;;;;;;;16.20;7.13;;;;;;;;;;5052850;28;20127;-66
2022/05/17 05:32:44;;;;;;;17.02;7.32;;;;;;;;;;5051731;28;20041;-66
2022/05/17 05:35:15;;;;;;;12.32;7.10;;;;;;;;;;5051011;28;20530;-65
2022/05/17 05:37:45;;;;;;;15.85;7.22;;;;;;;;;;5051252;28;20094;-65
2022/05/17 05:40:13;;;;;;;10.20;6.10;;;;;;;;;;5050119;28;20055;-64
2022/05/17 05:42:43;;;;;;;18.38;6.32;;;;;;;;;;5049342;28;20045;-66
2022/05/17 05:45:12;;;;;;;9.50;7.00;;;;;;;;;;5050889;28;20041;-65
2022/05/17 05:47:42;;;;;;;7.95;6.03;;;;;;;;;;5051873;28;20075;-65
2022/05/17 05:50:10;;;;;;;10.55;6.70;;;;;;;;;;5052655;28;20090;-65
2022/05/17 05:52:39;;;;;;;17.55;7.13;;;;;;;;;;5053620;28;20056;-66
2022/05/17 05:55:11;;;;;;;8.95;7.47;;;;;;;;;;5053735;28;20517;-65
2022/05/17 05:57:45;;;;;;;11.80;6.88;;;;;;;;;;5030946;28;20037;-65
2022/05/17 06:00:17;;;;;;;10.38;6.97;;;;;;;;;;5049659;28;20060;-64
2022/05/17 06:02:45;;;;;;;13.23;8.27;;;;;;;;;;5035230;28;20094;-65
2022/05/17 06:05:13;;;;;;;20.60;9.77;;;;;;;;;;5053000;28;20585;-63
2022/05/17 06:07:43;;;;;;;14.27;8.77;;;;;;;;;;5052927;28;20132;-64
2022/05/17 06:10:13;;;;;;;13.35;8.75;;;;;;;;;;5053597;28;20076;-64
2022/05/17 06:12:42;;;;;;;13.70;9.10;;;;;;;;;;5053455;28;20103;-66
2022/05/17 06:15:13;;;;;;;10.30;9.20;;;;;;;;;;5053374;28;20055;-64
2022/05/17 06:17:49;;;;;;;16.63;9.93;;;;;;;;;;5053814;28;20057;-65
2022/05/17 06:20:17;;;;;;;13.82;8.55;;;;;;;;;;5046066;28;20051;-64
2022/05/17 06:22:47;;;;;;;13.43;9.93;;;;;;;;;;5035092;28;20109;-64
2022/05/17 06:25:15;;;;;;;14.48;10.85;;;;;;;;;;5050516;28;20099;-64
2022/05/17 06:27:45;;;;;;;21.25;10.15;;;;;;;;;;5051673;28;20139;-65
2022/05/17 06:30:14;;;;;;;14.77;9.88;;;;;;;;;;5049761;28;20072;-65
2022/05/17 06:32:44;;;;;;;16.42;11.20;;;;;;;;;;5051888;28;20056;-64
2022/05/17 06:35:14;;;;;;;15.35;9.63;;;;;;;;;;5050592;28;20053;-65
2022/05/17 06:37:43;;;;;;;20.10;11.30;;;;;;;;;;5051523;28;20052;-64
2022/05/17 06:40:12;;;;;;;11.93;10.57;;;;;;;;;;5051243;28;20106;-64
2022/05/17 06:42:42;;;;;;;13.65;10.32;;;;;;;;;;5052983;28;20041;-65
2022/05/17 06:45:11;;;;;;;10.48;9.00;;;;;;;;;;5052953;28;20045;-64
2022/05/17 06:47:40;;;;;;;26.75;11.05;;;;;;;;;;5052555;28;20543;-64
2022/05/17 06:50:10;;;;;;;31.27;11.25;;;;;;;;;;5043981;28;20064;-64
2022/05/17 06:52:39;;;;;;;14.35;10.38;;;;;;;;;;5032866;28;20523;-64
2022/05/17 06:55:07;;;;;;;16.90;10.48;;;;;;;;;;5033177;28;20041;-64
2022/05/17 06:57:43;;;;;;;16.70;11.07;;;;;;;;;;5049709;28;20057;-64
2022/05/17 07:00:15;;;;;;;18.25;10.82;;;;;;;;;;5036880;28;20045;-65
2022/05/17 07:02:44;;;;;;;13.52;11.15;;;;;;;;;;5055687;28;20080;-65
2022/05/17 07:05:14;;;;;;;17.10;11.07;;;;;;;;;;5056322;28;20041;-65
2022/05/17 07:07:42;;;;;;;18.38;10.77;;;;;;;;;;5056305;28;20419;-65
2022/05/17 07:13:13;;;;;;;15.45;11.10;;;;;;;;;;5056495;28;20113;-65
2022/05/17 07:15:44;;;;;;;14.73;11.60;;;;;;;;;;5056804;28;20052;-64
2022/05/17 07:18:14;;;;;;;17.13;11.88;;;;;;;;;;5057184;28;20053;-65
2022/05/17 07:20:43;;;;;;;18.08;11.57;;;;;;;;;;5056634;28;20053;-64
2022/05/17 07:23:15;;;;;;;21.10;13.85;;;;;;;;;;5057250;28;20060;-65
2022/05/17 07:25:45;;;;;;;17.05;11.80;;;;;;;;;;5056267;28;20552;-65
2022/05/17 07:28:18;;;;;;;13.70;11.80;;;;;;;;;;5034279;28;20088;-64
2022/05/17 07:30:47;;;;;;;15.00;11.82;;;;;;;;;;5037265;28;20037;-64
2022/05/17 07:33:16;;;;;;;15.05;10.02;;;;;;;;;;5036310;28;20049;-64
2022/05/17 07:35:46;;;;;;;17.75;10.75;;;;;;;;;;5037024;28;20057;-65
2022/05/17 07:38:14;;;;;;;19.17;11.57;;;;;;;;;;5036378;28;20046;-65
2022/05/17 07:40:44;;;;;;;14.93;10.43;;;;;;;;;;5036771;28;20088;-64
2022/05/17 07:43:14;;;;;;;12.40;10.52;;;;;;;;;;5036500;28;20416;-65
2022/05/17 07:45:44;;;;;;;15.85;10.82;;;;;;;;;;5031227;28;20053;-65
2022/05/17 07:48:13;;;;;;;14.70;10.25;;;;;;;;;;5011404;28;20120;-65
2022/05/17 07:50:41;;;;;;;16.33;10.98;;;;;;;;;;5056082;28;20041;-65
2022/05/17 07:53:10;;;;;;;13.43;9.77;;;;;;;;;;5056327;28;20373;-65
2022/05/17 07:55:40;;;;;;;13.02;10.85;;;;;;;;;;5055935;28;20067;-65
2022/05/17 07:58:08;;;;;;;13.05;9.70;;;;;;;;;;5051964;28;20411;-65
2022/05/17 08:00:39;;;;;;;11.02;9.25;;;;;;;;;;5054712;28;20045;-65
2022/05/17 08:03:09;;;;;;;23.83;9.57;;;;;;;;;;5056289;28;20522;-65
2022/05/17 08:05:38;;;;;;;14.50;9.10;;;;;;;;;;5055720;28;20061;-65
2022/05/17 08:08:09;;;;;;;23.90;10.00;;;;;;;;;;5056114;28;20053;-65
2022/05/17 08:10:37;;;;;;;15.77;8.15;;;;;;;;;;5053976;28;20053;-65
2022/05/17 08:13:07;;;;;;;12.95;8.48;;;;;;;;;;5055880;28;20052;-65
2022/05/17 08:15:35;;;;;;;12.65;8.77;;;;;;;;;;5055487;28;20464;-65
2022/05/17 08:18:04;;;;;;;8.80;7.68;;;;;;;;;;5055900;28;20064;-65
2022/05/17 08:20:32;;;;;;;13.38;7.80;;;;;;;;;;5055672;28;20055;-65
2022/05/17 08:23:02;;;;;;;13.48;8.38;;;;;;;;;;5038197;28;20060;-65
2022/05/17 08:28:17;;;;;;;10.45;7.32;;;;;;;;;;5050082;28;20091;-65
2022/05/17 08:30:47;;;;;;;13.38;7.72;;;;;;;;;;5035607;28;20488;-65
2022/05/17 08:33:16;;;;;;;14.15;7.30;;;;;;;;;;5017874;28;20639;-66
2022/05/17 08:35:47;;;;;;;14.45;7.90;;;;;;;;;;5035380;28;20460;-66
2022/05/17 08:38:42;;;;;;;11.55;7.13;;;;;;;;;;5035447;28;20041;-66
2022/05/17 08:41:37;;;;;;;13.77;8.40;;;;;;;;;;5035735;28;20046;-65
2022/05/17 08:44:14;;;;;;;16.85;7.60;;;;;;;;;;5035404;28;20045;-65
2022/05/17 08:47:25;;;;;;;16.75;7.22;;;;;;;;;;5018550;28;20087;-65
2022/05/17 08:50:34;;;;;;;9.68;6.93;;;;;;;;;;5034311;28;20045;-65
2022/05/17 08:53:03;;;;;;;13.25;6.25;;;;;;;;;;5035084;28;20639;-66
2022/05/17 08:55:34;;;;;;;10.77;6.47;;;;;;;;;;5017828;28;20156;-66
2022/05/17 08:58:41;;;;;;;11.68;6.93;;;;;;;;;;5035251;28;20053;-66
2022/05/17 09:01:20;;;;;;;14.40;5.75;;;;;;;;;;5034617;28;20068;-66
2022/05/17 09:04:30;;;;;;;9.57;5.50;;;;;;;;;;5050476;28;20056;-65
2022/05/17 09:07:19;;;;;;;16.60;5.75;;;;;;;;;;5053892;28;20148;-66
2022/05/17 09:10:29;;;;;;;11.98;5.70;;;;;;;;;;5037120;28;20130;-65
2022/05/17 09:13:23;;;;;;;23.20;7.20;;;;;;;;;;5054265;28;20048;-66
2022/05/17 09:16:09;;;;;;;12.70;5.93;;;;;;;;;;5031747;28;20144;-66
2022/05/17 09:18:40;;;;;;;16.52;5.65;;;;;;;;;;5037152;28;20436;-66
2022/05/17 09:21:25;;;;;;;12.55;6.05;;;;;;;;;;5054269;28;20572;-66
2022/05/17 09:23:55;;;;;;;8.90;5.15;;;;;;;;;;5054383;28;20076;-66
2022/05/17 09:26:23;;;;;;;9.00;6.45;;;;;;;;;;5054255;28;20045;-66
2022/05/17 09:29:06;;;;;;;13.63;5.47;;;;;;;;;;5042626;28;20053;-66
2022/05/17 09:31:37;;;;;;;8.43;6.05;;;;;;;;;;5034812;28;20049;-66
2022/05/17 09:34:08;;;;;;;10.52;4.68;;;;;;;;;;5034458;28;20480;-66
2022/05/17 09:36:52;;;;;;;12.75;5.78;;;;;;;;;;5034069;28;20405;-66
2022/05/17 09:39:29;;;;;;;9.82;5.20;;;;;;;;;;5016022;28;20053;-66
2022/05/17 09:42:02;;;;;;;13.35;5.18;;;;;;;;;;5034085;28;20045;-66
2022/05/17 09:44:46;;;;;;;13.57;5.07;;;;;;;;;;5034599;28;20050;-66
2022/05/17 09:47:25;;;;;;;8.75;4.40;;;;;;;;;;5033826;28;20049;-66
2022/05/17 09:52:45;;;;;;;10.27;5.20;;;;;;;;;;5019072;28;20084;-66
2022/05/17 09:55:36;;;;;;;12.33;6.13;;;;;;;;;;5017730;28;20077;-66
2022/05/17 09:58:10;;;;;;;11.95;5.28;;;;;;;;;;5018714;28;20059;-66
2022/05/17 10:00:46;;;;;;;9.05;5.00;;;;;;;;;;5053967;28;20072;-66
2022/05/17 10:03:15;;;;;;;10.00;4.85;;;;;;;;;;5053148;28;20427;-66
2022/05/17 10:05:50;;;;;;;15.18;4.88;;;;;;;;;;5053359;28;20041;-66
2022/05/17 10:08:19;;;;;;;16.60;4.88;;;;;;;;;;5033779;28;20560;-66
2022/05/17 10:10:48;;;;;;;17.48;4.53;;;;;;;;;;5053890;28;20053;-66
2022/05/17 10:13:21;;;;;;;11.18;4.68;;;;;;;;;;5036580;28;20411;-66
2022/05/17 10:16:22;;;;;;;10.27;4.40;;;;;;;;;;5053512;28;20415;-66
2022/05/17 10:19:30;;;;;;;9.95;4.78;;;;;;;;;;5028653;28;20444;-66
2022/05/17 10:22:30;;;;;;;10.15;4.38;;;;;;;;;;5053768;28;20044;-67
2022/05/17 10:25:08;;;;;;;8.88;4.13;;;;;;;;;;5053193;28;20502;-65
2022/05/17 10:27:39;;;;;;;13.45;5.00;;;;;;;;;;5034834;28;20053;-66
2022/05/17 10:30:13;;;;;;;10.93;4.30;;;;;;;;;;5015555;28;20050;-66
2022/05/17 10:33:05;;;;;;;7.78;4.45;;;;;;;;;;5032676;28;20451;-66
2022/05/17 10:35:39;;;;;;;9.77;4.97;;;;;;;;;;5033565;28;20049;-66
2022/05/17 10:38:21;;;;;;;9.73;3.75;;;;;;;;;;5032661;28;20056;-64
2022/05/17 10:40:52;;;;;;;12.18;4.53;;;;;;;;;;5046562;28;20051;-65
2022/05/17 10:44:02;;;;;;;12.38;4.43;;;;;;;;;;5033372;28;20138;-65
2022/05/17 10:46:33;;;;;;;17.67;4.45;;;;;;;;;;5049126;28;20076;-66
2022/05/17 10:49:21;;;;;;;6.22;4.35;;;;;;;;;;5050690;28;20133;-66
2022/05/17 10:52:15;;;;;;;10.52;5.57;;;;;;;;;;5052880;28;20592;-66
2022/05/17 10:55:02;;;;;;;11.38;5.30;;;;;;;;;;5049674;28;20063;-66
2022/05/17 10:57:34;;;;;;;;;;;;;;;;;;5050295;28;20080;-75
2022/05/17 11:00:18;;;;;;;10.93;5.03;;;;;;;;;;5048240;28;19967;-72
2022/05/17 11:02:58;;;;;;;11.20;4.75;;;;;;;;;;5031341;28;20088;-72
2022/05/17 11:05:45;;;;;;;8.63;5.63;;;;;;;;;;5050886;28;20048;-72
2022/05/17 11:08:38;;;;;;;9.50;5.68;;;;;;;;;;5049555;28;20057;-72
2022/05/17 11:11:50;;;;;;;12.02;4.53;;;;;;;;;;5049310;28;20095;-72
2022/05/17 11:14:50;;;;;;;10.95;4.53;;;;;;;;;;5050985;28;20106;-72
2022/05/17 11:17:25;;;;;;;10.13;4.10;;;;;;;;;;5032134;28;20047;-72
2022/05/17 11:20:24;;;;;;;9.77;5.05;;;;;;;;;;5046040;28;20049;-73
2022/05/17 11:23:28;;;;;;;7.97;5.13;;;;;;;;;;5049501;28;20115;-72
2022/05/17 11:26:28;;;;;;;9.25;4.35;;;;;;;;;;5050363;28;20053;-73
2022/05/17 11:29:00;;;;;;;13.95;4.75;;;;;;;;;;5054880;28;20088;-71
2022/05/17 11:31:54;;;;;;;16.85;5.28;;;;;;;;;;5034992;28;20041;-72
2022/05/17 11:34:22;;;;;;;8.80;3.70;;;;;;;;;;5051865;28;20053;-70
2022/05/17 11:37:14;;;;;;;9.40;3.15;;;;;;;;;;5051738;28;20070;-72
2022/05/17 11:39:59;;;;;;;9.35;4.18;;;;;;;;;;5054753;28;20064;-69
2022/05/17 11:42:33;;;;;;;6.45;3.60;;;;;;;;;;5054503;28;20504;-77
2022/05/17 11:45:44;;;;;;;5.65;3.35;;;;;;;;;;5056271;28;20059;-73
2022/05/17 11:48:19;;;;;;;7.03;4.60;;;;;;;;;;5052695;28;20060;-72
2022/05/17 11:50:51;;;;;;;11.55;4.40;;;;;;;;;;5055488;28;20099;-72
2022/05/17 11:53:22;;;;;;;6.75;4.35;;;;;;;;;;5056350;28;20041;-73
2022/05/17 11:56:19;;;;;;;10.32;3.83;;;;;;;;;;5056145;28;20139;-73
2022/05/17 11:58:50;;;;;;;7.82;4.10;;;;;;;;;;5056202;28;20052;-73
2022/05/17 12:01:30;;;;;;;11.27;4.07;;;;;;;;;;5055576;28;20045;-72
2022/05/17 12:04:09;;;;;;;7.60;3.72;;;;;;;;;;5055645;28;20049;-73
2022/05/17 12:06:43;;;;;;;9.70;4.03;;;;;;;;;;5055386;28;20499;-72
2022/05/17 12:09:33;;;;;;;10.35;5.28;;;;;;;;;;5033327;28;20053;-73
2022/05/17 12:12:29;;;;;;;14.88;4.53;;;;;;;;;;5035446;28;20179;-72
2022/05/17 12:15:08;;;;;;;11.63;5.15;;;;;;;;;;5034975;28;20076;-71
2022/05/17 12:17:58;;;;;;;4.75;3.38;;;;;;;;;;5035033;28;20049;-73
2022/05/17 12:21:02;;;;;;;5.80;3.47;;;;;;;;;;5025610;28;20441;-75
2022/05/17 12:23:44;;;;;;;13.95;4.45;;;;;;;;;;5035168;28;20136;-72
2022/05/17 12:26:25;;;;;;;11.40;4.88;;;;;;;;;;5036402;28;20061;-72
2022/05/17 12:28:53;;;;;;;10.27;4.57;;;;;;;;;;5027140;28;20057;-73
2022/05/17 12:31:25;;;;;;;8.25;4.68;;;;;;;;;;5030497;28;20140;-74
2022/05/17 12:33:56;;;;;;;6.60;4.13;;;;;;;;;;5032989;28;20041;-73
2022/05/17 12:36:47;;;;;;;9.10;4.65;;;;;;;;;;5034726;28;20136;-73
2022/05/17 12:45:01;;;;;;;10.73;4.75;;;;;;;;;;5034673;28;20053;-75
2022/05/17 12:47:38;;;;;;;9.93;6.03;;;;;;;;;;5034470;28;20508;-76
2022/05/17 12:50:06;;;;;;;9.95;4.00;;;;;;;;;;5034096;28;20504;-75
2022/05/17 12:52:36;;;;;;;6.47;3.58;;;;;;;;;;5023822;28;20053;-77
2022/05/17 12:55:22;;;;;;;10.48;4.15;;;;;;;;;;5035144;28;20080;-76
2022/05/17 12:58:11;;;;;;;8.30;4.28;;;;;;;;;;5035212;28;20118;-75
2022/05/17 13:00:39;;;;;;;10.65;3.92;;;;;;;;;;5037335;28;20072;-75
2022/05/17 13:03:18;;;;;;;10.38;3.13;;;;;;;;;;5033683;28;20081;-77
2022/05/17 13:05:51;;;;;;;5.65;2.92;;;;;;;;;;5033704;28;20041;-74
2022/05/17 13:08:55;;;;;;;7.13;3.88;;;;;;;;;;5048590;28;20049;-73
2022/05/17 13:11:26;;;;;;;11.00;3.40;;;;;;;;;;5056107;28;20041;-72
2022/05/17 13:14:11;;;;;;;11.18;3.10;;;;;;;;;;5036895;28;20049;-78
2022/05/17 13:16:40;;;;;;;9.65;3.28;;;;;;;;;;5054326;28;20103;-74
2022/05/17 13:19:12;;;;;;;13.25;3.92;;;;;;;;;;5052625;28;20559;-74
2022/05/17 13:22:03;;;;;;;5.45;2.80;;;;;;;;;;5033168;28;20041;-74
2022/05/17 13:24:34;;;;;;;5.18;2.90;;;;;;;;;;5050930;28;20053;-74
2022/05/17 13:27:15;;;;;;;12.02;4.43;;;;;;;;;;5053013;28;20475;-77
2022/05/17 13:29:44;;;;;;;;;;;;;;;;;;5035868;28;20432;-75
2022/05/17 13:32:24;;;;;;;7.05;3.55;;;;;;;;;;5036567;28;20015;-75
2022/05/17 13:35:04;;;;;;;11.18;3.55;;;;;;;;;;5036413;28;20098;-74
2022/05/17 13:37:33;;;;;;;9.32;3.75;;;;;;;;;;5054067;28;20048;-75
2022/05/17 13:40:02;;;;;;;13.20;3.25;;;;;;;;;;5036567;28;20068;-74
2022/05/17 13:42:34;;;;;;;8.65;3.20;;;;;;;;;;5053958;28;20072;-75
2022/05/17 13:45:26;;;;;;;7.82;2.90;;;;;;;;;;5054085;28;20071;-75
2022/05/17 13:47:56;;;;;;;7.82;3.20;;;;;;;;;;5053454;28;20049;-75
2022/05/17 13:50:37;;;;;;;8.70;3.10;;;;;;;;;;5037863;28;20072;-75
2022/05/17 13:53:06;;;;;;;8.75;3.40;;;;;;;;;;5035772;28;20049;-75
2022/05/17 13:55:35;;;;;;;6.22;2.95;;;;;;;;;;5036651;28;20033;-75
2022/05/17 13:58:09;;;;;;;11.63;3.15;;;;;;;;;;5020000;28;20045;-75
2022/05/17 14:00:43;;;;;;;5.25;3.60;;;;;;;;;;5053606;28;20047;-75
2022/05/17 14:03:20;;;;;;;6.28;3.15;;;;;;;;;;5036619;28;20037;-75
2022/05/17 14:05:50;;;;;;;10.50;3.15;;;;;;;;;;5053356;28;20052;-74
2022/05/17 14:14:37;;;;;;;6.97;3.47;;;;;;;;;;5037393;28;20144;-75
2022/05/17 14:17:11;;;;;;;7.22;2.50;;;;;;;;;;5051710;28;20408;-74
2022/05/17 14:19:40;;;;;;;4.32;2.60;;;;;;;;;;5052834;28;20414;-75
2022/05/17 14:22:10;;;;;;;4.88;2.15;;;;;;;;;;5034937;28;20041;-75
2022/05/17 14:24:40;;;;;;;7.32;2.60;;;;;;;;;;5052897;28;20045;-73
2022/05/17 14:27:08;;;;;;;3.85;2.60;;;;;;;;;;5053001;28;20051;-75
2022/05/17 14:29:39;;;;;;;5.97;2.40;;;;;;;;;;5035854;28;20098;-75
2022/05/17 14:32:15;;;;;;;11.95;2.97;;;;;;;;;;5052871;28;20049;-76
2022/05/17 14:34:47;;;;;;;3.85;2.17;;;;;;;;;;5034507;28;20123;-75
2022/05/17 14:37:16;;;;;;;7.47;3.72;;;;;;;;;;5053171;28;20138;-74
2022/05/17 14:39:47;;;;;;;5.50;2.80;;;;;;;;;;5052274;28;20103;-73
2022/05/17 14:42:15;;;;;;;7.47;2.42;;;;;;;;;;5053700;28;20060;-72
2022/05/17 14:44:44;;;;;;;8.90;2.50;;;;;;;;;;5035968;28;20095;-74
2022/05/17 14:47:13;;;;;;;8.98;2.58;;;;;;;;;;5033806;28;20049;-75
2022/05/17 14:49:48;;;;;;;7.82;2.42;;;;;;;;;;5023107;28;20051;-76
2022/05/17 14:52:16;;;;;;;13.88;2.72;;;;;;;;;;5052804;28;20041;-74
2022/05/17 14:54:45;;;;;;;7.35;2.42;;;;;;;;;;5035468;28;20143;-73
2022/05/17 14:57:16;;;;;;;7.63;2.25;;;;;;;;;;5035513;28;20045;-72
2022/05/17 14:59:53;;;;;;;5.85;2.25;;;;;;;;;;5051113;28;20068;-73
2022/05/17 15:02:21;;;;;;;3.38;2.42;;;;;;;;;;5053040;28;20041;-73
2022/05/17 15:04:49;;;;;;;4.88;2.00;;;;;;;;;;5034863;28;20118;-73
2022/05/17 15:07:21;;;;;;;10.00;2.28;;;;;;;;;;5035077;28;20496;-74
2022/05/17 15:10:11;;;;;;;3.97;2.50;;;;;;;;;;5052258;28;20446;-74
2022/05/17 15:12:40;;;;;;;9.25;1.98;;;;;;;;;;5049193;28;20103;-74
2022/05/17 15:15:10;;;;;;;7.18;1.77;;;;;;;;;;5050835;28;20048;-75
2022/05/17 15:17:41;;;;;;;6.78;2.10;;;;;;;;;;5052252;28;20067;-75
2022/05/17 15:20:13;;;;;;;4.18;2.08;;;;;;;;;;5035166;28;20053;-74
2022/05/17 15:22:45;;;;;;;9.13;2.35;;;;;;;;;;5038928;28;20059;-74
2022/05/17 15:25:16;;;;;;;6.35;2.65;;;;;;;;;;5056482;28;20499;-74
2022/05/17 15:27:46;;;;;;;8.32;2.17;;;;;;;;;;5054939;28;20055;-73
2022/05/17 15:30:14;;;;;;;12.82;2.22;;;;;;;;;;5038259;28;20049;-74
2022/05/17 15:32:44;;;;;;;11.93;3.05;;;;;;;;;;5055797;28;20407;-76
2022/05/17 15:35:16;;;;;;;12.48;4.30;;;;;;;;;;5036677;28;20169;-76
2022/05/17 15:37:45;;;;;;;6.83;2.80;;;;;;;;;;5038324;28;20452;-74